Time;durP1;ratioP1;P1;durP2;ratioP2;P2;SDS_P1;SDS_P2;PMS_P1;PMS_P2;Temp;Humidity;BMP_temperature;BMP_pressure;BME280_temperature;BME280_humidity;BME280_pressure;Samples;Min_cycle;Max_cycle;Signal;HPM_P1;HPM_P2
2020/12/04 00:01:36;;;;;;;7.90;4.30;;;4.30;1.00;;;;;;5074646;28;20205;-74
2020/12/04 00:04:02;;;;;;;6.10;3.80;;;4.30;1.00;;;;;;5074691;28;20166;-74
2020/12/04 00:06:45;;;;;;;6.15;3.70;;;4.30;1.00;;;;;;5085195;28;20166;-75
2020/12/04 00:09:15;;;;;;;7.15;4.05;;;4.40;1.00;;;;;;5074245;28;20189;-74
2020/12/04 00:12:20;;;;;;;7.55;4.55;;;4.30;1.00;;;;;;5074756;28;20159;-75
2020/12/04 00:14:57;;;;;;;6.75;4.18;;;4.30;1.00;;;;;;5075651;28;20613;-75
2020/12/04 00:17:22;;;;;;;7.47;4.30;;;4.40;1.00;;;;;;5074631;28;20245;-75
2020/12/04 00:19:51;;;;;;;7.83;4.27;;;4.30;1.00;;;;;;5074567;28;20273;-75
2020/12/04 00:22:44;;;;;;;10.57;4.90;;;4.30;1.00;;;;;;5076440;28;20198;-75
2020/12/04 00:25:10;;;;;;;10.15;4.55;;;4.20;1.00;;;;;;5088439;28;20254;-75
2020/12/04 00:27:45;;;;;;;10.20;4.77;;;4.20;1.00;;;;;;5074624;28;20201;-74
2020/12/04 00:30:10;;;;;;;9.15;5.00;;;4.30;1.00;;;;;;5074286;28;20180;-74
2020/12/04 00:32:39;;;;;;;9.13;5.27;;;4.30;1.00;;;;;;5077235;28;20170;-74
2020/12/04 00:35:09;;;;;;;11.10;5.60;;;4.20;1.00;;;;;;5079831;28;20687;-74
2020/12/04 00:37:35;;;;;;;8.85;4.80;;;4.20;1.00;;;;;;5073918;28;20171;-74
2020/12/04 00:40:03;;;;;;;9.10;5.20;;;4.20;1.00;;;;;;5073853;28;20256;-74
2020/12/04 00:42:33;;;;;;;11.60;4.95;;;4.20;1.00;;;;;;5076139;28;20657;-75
2020/12/04 00:45:15;;;;;;;12.63;4.88;;;4.20;1.00;;;;;;5094387;28;20233;-75
2020/12/04 00:47:41;;;;;;;8.30;4.78;;;4.20;1.00;;;;;;5079199;28;20292;-75
2020/12/04 00:50:15;;;;;;;8.98;4.88;;;4.00;1.00;;;;;;5074257;28;20159;-75
2020/12/04 00:52:57;;;;;;;11.77;5.40;;;4.00;1.00;;;;;;5083612;28;20163;-75
2020/12/04 00:55:22;;;;;;;11.40;5.50;;;4.00;1.00;;;;;;5094144;28;20228;-75
2020/12/04 00:57:48;;;;;;;10.90;5.40;;;3.90;1.00;;;;;;5084073;28;20178;-74
2020/12/04 01:00:14;;;;;;;9.37;5.33;;;3.90;1.00;;;;;;5073873;28;20190;-74
2020/12/04 01:02:39;;;;;;;12.10;5.37;;;3.90;1.00;;;;;;5073937;28;20557;-74
2020/12/04 01:05:15;;;;;;;13.20;5.23;;;3.80;1.00;;;;;;5073796;28;20611;-75
2020/12/04 01:07:45;;;;;;;11.95;6.32;;;3.90;1.00;;;;;;5093996;28;20158;-74
2020/12/04 01:10:10;;;;;;;11.85;5.00;;;3.80;1.00;;;;;;5094053;28;20690;-74
2020/12/04 01:12:36;;;;;;;12.50;5.63;;;3.90;1.00;;;;;;5093415;28;20197;-75
2020/12/04 01:15:09;;;;;;;14.17;6.50;;;3.90;1.00;;;;;;5094288;28;20154;-75
2020/12/04 01:17:39;;;;;;;12.65;5.70;;;3.90;1.00;;;;;;5093989;28;20162;-75
2020/12/04 01:20:04;;;;;;;13.63;6.05;;;3.80;1.00;;;;;;5094050;28;20230;-75
2020/12/04 01:22:31;;;;;;;12.17;5.10;;;3.80;1.00;;;;;;5088049;28;20198;-75
2020/12/04 01:24:57;;;;;;;13.18;5.40;;;3.80;1.00;;;;;;5075957;28;20159;-75
2020/12/04 01:27:33;;;;;;;11.32;5.82;;;3.80;1.00;;;;;;5094071;28;20575;-74
2020/12/04 01:29:58;;;;;;;9.57;5.35;;;3.80;1.00;;;;;;5093801;28;20158;-74
2020/12/04 01:32:33;;;;;;;10.20;5.20;;;3.70;1.00;;;;;;5092474;28;20621;-74
2020/12/04 01:35:03;;;;;;;8.48;5.55;;;3.70;1.00;;;;;;5073479;28;20159;-75
2020/12/04 01:37:29;;;;;;;16.83;5.95;;;3.70;1.00;;;;;;5073339;28;20676;-74
2020/12/04 01:39:55;;;;;;;12.32;5.97;;;3.70;1.00;;;;;;5073460;28;20221;-74
2020/12/04 01:42:33;;;;;;;11.33;5.70;;;3.60;1.00;;;;;;5073920;28;20584;-74
2020/12/04 01:45:20;;;;;;;11.70;5.53;;;3.60;1.00;;;;;;5080364;28;20183;-75
2020/12/04 01:48:20;;;;;;;9.07;4.05;;;3.60;1.00;;;;;;5077824;28;20163;-75
2020/12/04 01:50:52;;;;;;;12.77;5.32;;;3.50;1.00;;;;;;5077355;28;20159;-75
2020/12/04 01:53:44;;;;;;;10.45;5.13;;;3.50;1.00;;;;;;5076914;28;20238;-75
2020/12/04 01:56:40;;;;;;;10.88;5.65;;;3.50;1.00;;;;;;5077379;28;20187;-75
2020/12/04 01:59:26;;;;;;;12.98;5.10;;;3.60;1.00;;;;;;5077562;28;20193;-75
2020/12/04 02:02:21;;;;;;;10.98;5.03;;;3.60;1.00;;;;;;5077171;28;20159;-75
2020/12/04 02:04:51;;;;;;;12.30;5.78;;;3.60;1.00;;;;;;5077102;28;20221;-75
2020/12/04 02:07:55;;;;;;;12.52;5.55;;;3.60;1.00;;;;;;5076765;28;20162;-75
2020/12/04 02:10:38;;;;;;;9.98;5.78;;;3.50;1.00;;;;;;5077021;28;20162;-75
2020/12/04 02:13:15;;;;;;;11.73;5.50;;;3.40;1.00;;;;;;5077014;28;20590;-74
2020/12/04 02:15:44;;;;;;;9.13;5.22;;;3.40;1.00;;;;;;5076725;28;20166;-74
2020/12/04 02:18:36;;;;;;;12.32;5.25;;;3.40;1.00;;;;;;5077566;28;20548;-74
2020/12/04 02:21:02;;;;;;;13.32;6.18;;;3.40;1.00;;;;;;5076743;28;20166;-74
2020/12/04 02:23:28;;;;;;;12.20;5.00;;;3.40;1.00;;;;;;5075331;28;20171;-74
2020/12/04 02:26:04;;;;;;;12.30;5.78;;;3.50;1.00;;;;;;5079263;28;20167;-74
2020/12/04 02:28:50;;;;;;;13.32;6.57;;;3.50;1.00;;;;;;5091909;28;20508;-74
2020/12/04 02:31:16;;;;;;;9.48;5.22;;;3.50;1.00;;;;;;5076611;28;20159;-74
2020/12/04 02:33:51;;;;;;;13.50;5.90;;;3.50;1.00;;;;;;5080217;28;20170;-74
2020/12/04 02:36:21;;;;;;;11.45;5.25;;;3.50;1.00;;;;;;5096974;28;20440;-74
2020/12/04 02:38:46;;;;;;;12.95;5.43;;;3.50;1.00;;;;;;5094618;28;20268;-74
2020/12/04 02:41:21;;;;;;;8.73;4.77;;;3.50;1.00;;;;;;5096700;28;20208;-75
2020/12/04 02:43:51;;;;;;;12.68;5.25;;;3.60;1.00;;;;;;5097066;28;20674;-75
2020/12/04 02:46:16;;;;;;;13.45;6.47;;;3.60;1.00;;;;;;5086952;28;20640;-74
2020/12/04 02:48:42;;;;;;;12.77;5.83;;;3.60;1.00;;;;;;5094361;28;20190;-75
2020/12/04 02:51:08;;;;;;;16.80;6.53;;;3.50;1.00;;;;;;5085563;28;20179;-75
2020/12/04 02:53:39;;;;;;;13.47;4.90;;;3.50;1.00;;;;;;5076124;28;20185;-74
2020/12/04 02:56:04;;;;;;;12.57;6.15;;;3.60;1.00;;;;;;5075638;28;20167;-74
2020/12/04 02:58:31;;;;;;;10.90;5.70;;;3.60;1.00;;;;;;5087566;28;20194;-75
2020/12/04 03:00:57;;;;;;;15.93;6.20;;;3.50;1.00;;;;;;5096296;28;20616;-74
2020/12/04 03:03:27;;;;;;;12.82;5.90;;;3.50;1.00;;;;;;5096089;28;20190;-74
2020/12/04 03:05:53;;;;;;;12.25;5.55;;;3.60;1.00;;;;;;5093781;28;20644;-74
2020/12/04 03:08:25;;;;;;;10.68;4.70;;;3.60;1.00;;;;;;5095685;28;20570;-74
2020/12/04 03:10:51;;;;;;;12.40;6.32;;;3.70;1.00;;;;;;5079244;28;20163;-74
2020/12/04 03:13:21;;;;;;;16.55;6.70;;;3.70;1.00;;;;;;5076127;28;20155;-75
2020/12/04 03:15:47;;;;;;;11.30;5.40;;;3.70;1.00;;;;;;5077557;28;20151;-75
2020/12/04 03:18:13;;;;;;;18.00;6.90;;;3.70;1.00;;;;;;5095443;28;20164;-75
2020/12/04 03:20:45;;;;;;;11.60;5.63;;;3.80;1.00;;;;;;5075766;28;20163;-75
2020/12/04 03:23:15;;;;;;;13.25;6.00;;;3.80;1.00;;;;;;5094384;28;20657;-75
2020/12/04 03:25:41;;;;;;;12.75;5.28;;;3.90;1.00;;;;;;5094225;28;20150;-75
2020/12/04 03:28:07;;;;;;;13.37;6.60;;;3.90;1.00;;;;;;5075667;28;20185;-74
2020/12/04 03:30:51;;;;;;;13.20;5.63;;;3.90;1.00;;;;;;5075484;28;20187;-74
2020/12/04 03:33:21;;;;;;;12.32;4.85;;;4.00;1.00;;;;;;5091754;28;20162;-74
2020/12/04 03:35:47;;;;;;;13.18;5.60;;;4.00;1.00;;;;;;5095415;28;20182;-74
2020/12/04 03:38:21;;;;;;;10.03;5.50;;;4.00;1.00;;;;;;5081957;28;20175;-74
2020/12/04 03:40:51;;;;;;;14.77;4.82;;;3.90;1.00;;;;;;5090844;28;20589;-74
2020/12/04 03:43:21;;;;;;;15.13;5.80;;;3.90;1.00;;;;;;5075429;28;20610;-75
2020/12/04 03:45:47;;;;;;;14.38;6.13;;;4.00;1.00;;;;;;5074872;28;20250;-75
2020/12/04 03:48:21;;;;;;;8.87;5.47;;;4.00;1.00;;;;;;5075076;28;20253;-75
2020/12/04 03:50:51;;;;;;;13.20;5.35;;;4.00;1.00;;;;;;5089734;28;20459;-75
2020/12/04 03:53:38;;;;;;;12.48;5.25;;;4.00;1.00;;;;;;5077793;28;20653;-75
2020/12/04 03:56:09;;;;;;;9.07;4.45;;;4.10;1.00;;;;;;5074966;28;20216;-75
2020/12/04 03:58:35;;;;;;;10.68;4.82;;;4.10;1.00;;;;;;5075229;28;20256;-74
2020/12/04 04:01:03;;;;;;;11.10;5.90;;;4.10;1.00;;;;;;5080559;28;20193;-74
2020/12/04 04:03:33;;;;;;;13.05;5.40;;;4.20;1.00;;;;;;5075724;28;20221;-74
2020/12/04 04:05:59;;;;;;;7.88;4.68;;;4.20;1.00;;;;;;5075562;28;20195;-74
2020/12/04 04:08:24;;;;;;;11.80;5.97;;;4.20;1.00;;;;;;5090528;28;20247;-74
2020/12/04 04:10:50;;;;;;;12.73;5.47;;;4.20;1.00;;;;;;5094777;28;20158;-75
2020/12/04 04:13:21;;;;;;;12.63;5.30;;;4.20;1.00;;;;;;5095199;28;20163;-75
2020/12/04 04:15:51;;;;;;;8.23;4.22;;;4.20;1.00;;;;;;5074266;28;20170;-75
2020/12/04 04:18:21;;;;;;;11.15;4.85;;;4.20;1.00;;;;;;5090625;28;20621;-76
2020/12/04 04:20:51;;;;;;;12.45;6.30;;;4.30;1.00;;;;;;5094650;28;20165;-76
2020/12/04 04:23:21;;;;;;;9.90;5.45;;;4.30;1.00;;;;;;5094986;28;20162;-75
2020/12/04 04:26:03;;;;;;;12.90;4.53;;;4.30;1.00;;;;;;5075096;28;20238;-75
2020/12/04 04:28:30;;;;;;;8.93;4.80;;;4.40;1.00;;;;;;5074709;28;20167;-75
2020/12/04 04:30:56;;;;;;;8.88;5.25;;;4.40;1.00;;;;;;5074539;28;20162;-75
2020/12/04 04:33:27;;;;;;;18.70;4.80;;;4.40;1.00;;;;;;5074557;28;20269;-74
2020/12/04 04:36:03;;;;;;;9.48;5.05;;;4.50;1.00;;;;;;5073943;28;20412;-75
2020/12/04 04:38:33;;;;;;;6.55;3.85;;;4.50;1.00;;;;;;5075036;28;20568;-75
2020/12/04 04:41:03;;;;;;;9.00;4.22;;;4.50;1.00;;;;;;5074999;28;20209;-75
2020/12/04 04:43:36;;;;;;;8.00;3.85;;;4.50;1.00;;;;;;5074246;28;20251;-75
2020/12/04 04:46:17;;;;;;;7.15;4.43;;;4.50;1.00;;;;;;5074248;28;20193;-74
2020/12/04 04:48:51;;;;;;;7.88;4.13;;;4.50;1.00;;;;;;5074159;28;20151;-74
2020/12/04 04:51:23;;;;;;;5.63;3.55;;;4.40;1.00;;;;;;5079939;28;20174;-74
2020/12/04 04:54:00;;;;;;;8.38;3.72;;;4.50;1.00;;;;;;5075021;28;20163;-74
2020/12/04 04:56:27;;;;;;;5.07;3.17;;;4.60;1.00;;;;;;5073943;28;20165;-74
2020/12/04 04:58:53;;;;;;;6.82;3.10;;;4.60;1.00;;;;;;5074325;28;20191;-74
2020/12/04 05:01:21;;;;;;;3.47;2.30;;;4.60;1.00;;;;;;5074674;28;20599;-74
2020/12/04 05:04:00;;;;;;;6.78;3.00;;;4.70;1.00;;;;;;5073862;28;20470;-74
2020/12/04 05:06:39;;;;;;;6.70;3.45;;;4.80;1.00;;;;;;5073824;28;20266;-74
2020/12/04 05:09:26;;;;;;;8.85;3.30;;;4.80;1.00;;;;;;5075831;28;20174;-74
2020/12/04 05:12:03;;;;;;;6.47;2.95;;;4.80;1.00;;;;;;5073467;28;20182;-74
2020/12/04 05:14:45;;;;;;;9.98;3.30;;;4.80;1.00;;;;;;5074256;28;20159;-74
2020/12/04 05:17:11;;;;;;;3.45;2.90;;;4.90;1.00;;;;;;5073538;28;20159;-74
2020/12/04 05:19:39;;;;;;;4.60;2.57;;;4.90;1.00;;;;;;5076775;28;20236;-75
2020/12/04 05:22:15;;;;;;;3.20;2.70;;;5.00;1.00;;;;;;5082517;28;20564;-74
2020/12/04 05:24:57;;;;;;;5.88;3.00;;;5.10;1.00;;;;;;5098066;28;20520;-75
2020/12/04 05:27:28;;;;;;;7.00;3.30;;;5.10;1.00;;;;;;5097952;28;20162;-75
2020/12/04 05:29:59;;;;;;;5.95;3.63;;;5.10;1.00;;;;;;5098467;28;20220;-75
2020/12/04 05:32:26;;;;;;;3.70;2.25;;;5.10;1.00;;;;;;5089508;28;20179;-75
2020/12/04 05:35:12;;;;;;;5.13;2.95;;;5.20;1.00;;;;;;5077636;28;20167;-75
2020/12/04 05:37:38;;;;;;;4.95;3.30;;;5.20;1.00;;;;;;5077383;28;20262;-75
2020/12/04 05:40:12;;;;;;;4.90;2.70;;;5.20;1.00;;;;;;5077470;28;20297;-75
2020/12/04 05:42:42;;;;;;;5.82;3.25;;;5.20;1.00;;;;;;5085570;28;20785;-74
2020/12/04 05:45:08;;;;;;;2.58;2.30;;;5.30;1.00;;;;;;5090055;28;20179;-74
2020/12/04 05:47:38;;;;;;;3.83;3.03;;;5.30;1.00;;;;;;5081037;28;20272;-75
2020/12/04 05:50:06;;;;;;;2.78;2.40;;;5.40;1.00;;;;;;5088768;28;20163;-74
2020/12/04 05:52:40;;;;;;;3.95;2.53;;;5.40;1.00;;;;;;5077151;28;20175;-75
2020/12/04 05:55:07;;;;;;;4.53;2.80;;;5.40;1.00;;;;;;5096890;28;20186;-75
2020/12/04 05:58:07;;;;;;;6.15;2.67;;;5.40;1.00;;;;;;5097391;28;20199;-75
2020/12/04 06:00:51;;;;;;;2.33;1.90;;;5.50;1.00;;;;;;5089241;28;20199;-76
2020/12/04 06:03:22;;;;;;;6.78;2.55;;;5.50;1.00;;;;;;5077265;28;20440;-75
2020/12/04 06:06:15;;;;;;;5.28;2.97;;;5.50;1.00;;;;;;5077107;28;20151;-75
2020/12/04 06:09:03;;;;;;;5.10;2.55;;;5.50;1.00;;;;;;5077661;28;20212;-76
2020/12/04 06:11:41;;;;;;;2.47;2.28;;;5.60;1.00;;;;;;5092900;28;20178;-76
2020/12/04 06:14:22;;;;;;;5.07;2.75;;;5.60;1.00;;;;;;5097138;28;20170;-76
2020/12/04 06:17:12;;;;;;;3.35;2.20;;;5.60;1.00;;;;;;5097399;28;20159;-74
2020/12/04 06:19:51;;;;;;;9.15;3.38;;;5.50;1.00;;;;;;5086479;28;20210;-73
2020/12/04 06:22:21;;;;;;;3.60;3.13;;;5.50;1.00;;;;;;5086778;28;20339;-74
2020/12/04 06:24:55;;;;;;;3.10;2.40;;;5.50;1.00;;;;;;5083564;28;20825;-73
2020/12/04 06:27:44;;;;;;;2.03;1.70;;;5.50;1.00;;;;;;5091919;28;20170;-74
2020/12/04 06:30:15;;;;;;;2.80;1.63;;;5.60;1.00;;;;;;5094108;28;20198;-75
2020/12/04 06:32:51;;;;;;;4.10;2.00;;;5.60;1.00;;;;;;5076317;28;20246;-76
2020/12/04 06:38:40;;;;;;;1.90;1.80;;;5.60;1.00;;;;;;5076388;28;20743;-75
2020/12/04 06:41:59;;;;;;;4.00;2.30;;;5.60;1.00;;;;;;5082509;28;20205;-75
2020/12/04 06:44:50;;;;;;;2.55;1.65;;;5.70;1.00;;;;;;5014654;28;20193;-75
2020/12/04 06:48:11;;;;;;;3.63;2.17;;;5.60;1.00;;;;;;5013395;28;20187;-76
2020/12/04 06:50:58;;;;;;;1.58;1.42;;;5.70;1.00;;;;;;4954271;29;20182;-76
2020/12/04 06:54:02;;;;;;;1.95;1.73;;;5.60;1.00;;;;;;4937106;29;20252;-77
2020/12/04 06:56:34;;;;;;;1.60;1.50;;;5.60;1.00;;;;;;4936747;29;20227;-76
2020/12/04 06:59:20;;;;;;;1.85;1.45;;;5.70;1.00;;;;;;4936580;29;20211;-76
2020/12/04 07:01:57;;;;;;;1.65;1.55;;;5.70;1.00;;;;;;4943754;29;20183;-74
2020/12/04 07:04:29;;;;;;;1.35;1.25;;;5.70;1.00;;;;;;4955563;29;20183;-74
2020/12/04 07:07:12;;;;;;;5.63;1.10;;;5.70;1.00;;;;;;4941148;29;20192;-74
2020/12/04 07:09:39;;;;;;;2.83;1.90;;;5.70;1.00;;;;;;4936635;29;20569;-74
2020/12/04 07:12:07;;;;;;;1.92;1.35;;;5.80;1.00;;;;;;4920494;29;20188;-75
2020/12/04 07:14:33;;;;;;;1.75;1.65;;;5.80;1.00;;;;;;4936469;29;20179;-74
2020/12/04 07:17:03;;;;;;;1.53;1.20;;;5.80;1.00;;;;;;4948460;29;20238;-74
2020/12/04 07:19:43;;;;;;;2.10;1.45;;;5.80;1.00;;;;;;4977125;28;20524;-74
2020/12/04 07:22:09;;;;;;;1.50;1.40;;;5.80;1.00;;;;;;5033295;28;20570;-75
2020/12/04 07:24:35;;;;;;;1.40;1.30;;;5.80;1.00;;;;;;5055001;28;20197;-74
2020/12/04 07:27:05;;;;;;;1.85;1.65;;;5.80;1.00;;;;;;5075115;28;20217;-74
2020/12/04 07:29:45;;;;;;;1.02;0.93;;;5.80;1.00;;;;;;5075360;28;20644;-74
2020/12/04 07:32:12;;;;;;;4.38;1.75;;;5.90;1.00;;;;;;5076433;28;20249;-74
2020/12/04 07:34:38;;;;;;;1.35;1.25;;;5.90;1.00;;;;;;5075394;28;20167;-74
2020/12/04 07:37:05;;;;;;;1.17;1.17;;;5.90;1.00;;;;;;5075528;28;20528;-74
2020/12/04 07:39:42;;;;;;;3.42;1.30;;;6.80;1.00;;;;;;5093391;28;20220;-74
2020/12/04 07:42:10;;;;;;;1.52;1.42;;;5.90;1.00;;;;;;5092954;28;20166;-74
2020/12/04 07:44:52;;;;;;;1.60;1.50;;;5.90;1.00;;;;;;5094149;28;20194;-74
2020/12/04 07:47:21;;;;;;;1.45;1.30;;;5.80;1.00;;;;;;5089477;28;20412;-75
2020/12/04 07:50:10;;;;;;;2.08;1.40;;;5.90;1.00;;;;;;5092194;28;20561;-76
2020/12/04 07:52:36;;;;;;;1.65;1.38;;;5.90;1.00;;;;;;5115495;28;20162;-76
2020/12/04 07:55:17;;;;;;;1.57;1.47;;;6.00;1.00;;;;;;5115485;28;20515;-76
2020/12/04 07:57:52;;;;;;;1.52;1.40;;;6.00;1.00;;;;;;5115686;28;20441;-75
2020/12/04 08:00:31;;;;;;;1.40;1.30;;;6.10;1.00;;;;;;5080821;28;20522;-75
2020/12/04 08:03:21;;;;;;;1.23;1.13;;;6.10;1.00;;;;;;5094852;28;20792;-75
2020/12/04 08:05:51;;;;;;;2.03;1.40;;;6.20;1.00;;;;;;5081334;28;20405;-74
2020/12/04 08:08:20;;;;;;;2.70;1.17;;;6.20;1.00;;;;;;5074678;28;20614;-74
2020/12/04 08:11:09;;;;;;;1.70;1.43;;;6.20;1.00;;;;;;5075676;28;20195;-74
2020/12/04 08:13:39;;;;;;;1.77;1.23;;;6.30;1.00;;;;;;5094436;28;20411;-74
2020/12/04 08:16:27;;;;;;;1.77;1.63;;;6.30;1.00;;;;;;5094941;28;20259;-74
2020/12/04 08:18:53;;;;;;;1.53;1.30;;;6.40;1.00;;;;;;5074492;28;20520;-74
2020/12/04 08:21:18;;;;;;;1.70;1.60;;;6.50;1.00;;;;;;5084351;28;20411;-74
2020/12/04 08:23:54;;;;;;;2.57;1.70;;;6.40;1.00;;;;;;5094330;28;20151;-74
2020/12/04 08:26:21;;;;;;;2.30;1.92;;;6.40;1.00;;;;;;5082653;28;20541;-74
2020/12/04 08:29:12;;;;;;;1.93;1.57;;;6.50;1.00;;;;;;5094367;28;20244;-74
2020/12/04 08:31:38;;;;;;;3.10;1.80;;;6.50;1.00;;;;;;5086730;28;20552;-74
2020/12/04 08:34:03;;;;;;;1.97;1.60;;;6.60;1.00;;;;;;5074524;28;20880;-74
2020/12/04 08:36:33;;;;;;;6.33;2.20;;;6.60;1.00;;;;;;5074310;28;20289;-74
2020/12/04 08:38:59;;;;;;;1.42;1.33;;;6.60;1.00;;;;;;5073685;28;20666;-75
2020/12/04 08:41:36;;;;;;;3.53;1.87;;;6.60;1.00;;;;;;5074007;28;20171;-74
2020/12/04 08:44:06;;;;;;;2.80;1.83;;;6.70;1.00;;;;;;5074268;28;20167;-74
2020/12/04 08:46:36;;;;;;;1.47;1.37;;;6.70;1.00;;;;;;5078110;28;20425;-74
2020/12/04 08:49:03;;;;;;;1.53;1.40;;;6.80;1.00;;;;;;5082992;28;20429;-74
2020/12/04 08:51:29;;;;;;;2.00;1.60;;;6.80;1.00;;;;;;5093513;28;20415;-74
2020/12/04 08:53:55;;;;;;;1.60;1.50;;;6.70;1.00;;;;;;5093963;28;20400;-75
2020/12/04 08:56:24;;;;;;;2.90;1.67;;;6.70;1.00;;;;;;5093943;28;20420;-74
2020/12/04 08:58:50;;;;;;;1.63;1.50;;;6.70;1.00;;;;;;5093181;28;20197;-74
2020/12/04 09:01:40;;;;;;;1.77;1.67;;;8.90;1.00;;;;;;5094128;28;20401;-74
2020/12/04 09:04:05;;;;;;;1.47;1.27;;;6.80;1.00;;;;;;5073709;28;20209;-74
2020/12/04 09:06:39;;;;;;;1.50;1.30;;;6.80;1.00;;;;;;5074925;28;20421;-74
2020/12/04 09:09:21;;;;;;;1.70;1.60;;;6.90;1.00;;;;;;5087367;28;20186;-74
2020/12/04 09:11:47;;;;;;;2.30;1.43;;;6.90;1.00;;;;;;5076547;28;20431;-74
2020/12/04 09:14:15;;;;;;;1.83;1.20;;;7.00;1.00;;;;;;5090055;28;20425;-74
2020/12/04 09:16:45;;;;;;;1.50;1.40;;;6.90;1.00;;;;;;5085023;28;20193;-74
2020/12/04 09:19:21;;;;;;;1.33;1.23;;;7.10;1.00;;;;;;5073510;28;20463;-74
2020/12/04 09:21:47;;;;;;;1.50;1.23;;;7.30;1.00;;;;;;5073134;28;20435;-74
2020/12/04 09:24:12;;;;;;;2.07;1.60;;;7.40;1.00;;;;;;5076750;28;20934;-74
2020/12/04 09:26:38;;;;;;;2.40;1.60;;;7.40;1.00;;;;;;5075277;28;20190;-74
2020/12/04 09:29:03;;;;;;;2.90;1.70;;;7.40;1.00;;;;;;5072296;28;20265;-74
2020/12/04 09:31:33;;;;;;;2.43;1.50;;;8.50;1.00;;;;;;5080464;28;20186;-74
2020/12/04 09:33:58;;;;;;;2.33;1.57;;;7.60;1.00;;;;;;5074127;28;20242;-74
2020/12/04 09:36:24;;;;;;;1.50;1.40;;;7.60;1.00;;;;;;5071117;28;20579;-74
2020/12/04 09:38:50;;;;;;;1.70;1.60;;;8.90;1.00;;;;;;5072519;28;20198;-75
2020/12/04 09:41:15;;;;;;;1.93;1.40;;;7.60;1.00;;;;;;5072285;28;20220;-75
2020/12/04 09:43:41;;;;;;;4.60;1.60;;;9.20;1.00;;;;;;5071178;28;20202;-75
2020/12/04 09:46:06;;;;;;;1.57;1.47;;;8.00;1.00;;;;;;5071817;28;20215;-74
2020/12/04 09:48:32;;;;;;;1.27;1.17;;;8.00;1.00;;;;;;5072741;28;20183;-74
2020/12/04 09:50:57;;;;;;;1.50;1.40;;;8.20;1.00;;;;;;5072326;28;20248;-74
2020/12/04 09:53:23;;;;;;;1.53;1.40;;;8.30;1.00;;;;;;5072438;28;20285;-76
2020/12/04 09:55:49;;;;;;;1.63;1.53;;;8.20;1.00;;;;;;5076040;28;20615;-74
2020/12/04 09:58:14;;;;;;;1.17;1.07;;;9.10;1.00;;;;;;5072295;28;20167;-74
2020/12/04 10:00:40;;;;;;;1.67;1.40;;;8.40;1.00;;;;;;5078523;28;20701;-74
2020/12/04 10:03:06;;;;;;;2.13;1.40;;;8.50;1.00;;;;;;5072537;28;20242;-76
2020/12/04 10:05:31;;;;;;;3.90;1.90;;;8.60;1.00;;;;;;5082569;28;20560;-75
2020/12/04 10:07:57;;;;;;;1.67;1.57;;;;;;;;;;5076819;28;20178;-77
2020/12/04 10:10:23;;;;;;;2.03;1.37;;;;;;;;;;5075583;28;20596;-74
2020/12/04 10:12:49;;;;;;;5.57;1.73;;;;;;;;;;5075870;28;20475;-74
2020/12/04 10:15:22;;;;;;;3.87;1.73;;;8.60;1.00;;;;;;5079283;28;20757;-77
2020/12/04 10:17:47;;;;;;;4.07;2.00;;;8.90;1.00;;;;;;5086904;28;20748;-74
2020/12/04 10:20:27;;;;;;;2.80;1.87;;;8.50;1.00;;;;;;5096731;28;20448;-74
2020/12/04 10:22:53;;;;;;;3.40;1.97;;;8.50;1.00;;;;;;5097032;28;20159;-77
2020/12/04 10:25:18;;;;;;;3.20;2.30;;;8.30;1.00;;;;;;5089356;28;20410;-74
2020/12/04 10:27:44;;;;;;;3.93;2.13;;;8.40;1.00;;;;;;5081099;28;20194;-74
2020/12/04 10:30:15;;;;;;;1.83;1.70;;;9.70;1.00;;;;;;5078131;28;20187;-74
2020/12/04 10:32:41;;;;;;;2.63;1.97;;;8.90;1.00;;;;;;5082255;28;20192;-74
2020/12/04 10:35:06;;;;;;;3.27;2.30;;;8.90;1.00;;;;;;5096564;28;20420;-74
2020/12/04 10:37:39;;;;;;;2.60;2.23;;;8.70;1.00;;;;;;5096619;28;20167;-74
2020/12/04 10:40:05;;;;;;;3.27;2.10;;;8.80;1.00;;;;;;5079304;28;20225;-74
2020/12/04 10:42:30;;;;;;;4.27;1.90;;;8.90;1.00;;;;;;5088967;28;20801;-74
2020/12/04 10:44:56;;;;;;;2.97;2.30;;;8.90;1.00;;;;;;5084702;28;20647;-75
2020/12/04 10:47:21;;;;;;;2.70;2.03;;;9.20;1.00;;;;;;5094239;28;20183;-75
2020/12/04 10:49:47;;;;;;;3.43;2.33;;;9.00;1.00;;;;;;5094566;28;20213;-74
2020/12/04 10:52:13;;;;;;;6.10;2.87;;;9.70;1.00;;;;;;5095329;28;20267;-74
2020/12/04 10:54:39;;;;;;;4.57;2.30;;;8.90;1.00;;;;;;5097971;28;20183;-74
2020/12/04 10:57:04;;;;;;;3.70;2.30;;;8.90;1.00;;;;;;5094645;28;20423;-74
2020/12/04 10:59:30;;;;;;;4.37;2.70;;;8.90;1.00;;;;;;5098897;28;20256;-74
2020/12/04 11:02:00;;;;;;;3.40;2.60;;;9.20;1.00;;;;;;5084818;28;20205;-74
2020/12/04 11:07:10;;;;;;;3.00;1.90;;;8.70;1.00;;;;;;5081035;28;20495;-75
2020/12/04 11:09:36;;;;;;;8.13;2.70;;;8.90;1.00;;;;;;5094286;28;20511;-75
2020/12/04 11:12:01;;;;;;;6.17;2.50;;;8.80;1.00;;;;;;5085336;28;20178;-75
2020/12/04 11:14:27;;;;;;;2.73;2.53;;;9.00;1.00;;;;;;5076503;28;20191;-75
2020/12/04 11:16:52;;;;;;;4.80;2.40;;;9.50;1.00;;;;;;5075881;28;20171;-75
2020/12/04 11:19:18;;;;;;;3.97;2.43;;;9.90;1.00;;;;;;5084353;28;20193;-75
2020/12/04 11:21:44;;;;;;;4.83;2.13;;;9.60;1.00;;;;;;5094825;28;20529;-74
2020/12/04 11:24:09;;;;;;;4.10;2.37;;;8.70;1.00;;;;;;5094444;28;20162;-74
2020/12/04 11:26:35;;;;;;;2.63;1.90;;;9.40;1.00;;;;;;5074320;28;20173;-74
2020/12/04 11:29:01;;;;;;;4.30;2.83;;;8.70;1.00;;;;;;5075710;28;20187;-74
2020/12/04 11:31:26;;;;;;;4.30;2.63;;;8.70;1.00;;;;;;5082677;28;20599;-74
2020/12/04 11:33:52;;;;;;;4.47;2.50;;;8.70;1.00;;;;;;5091689;28;20219;-75
2020/12/04 11:36:18;;;;;;;3.80;2.63;;;8.80;1.00;;;;;;5094782;28;20179;-74
2020/12/04 11:38:43;;;;;;;3.37;2.20;;;8.80;1.00;;;;;;5089540;28;20631;-74
2020/12/04 11:41:15;;;;;;;4.77;2.30;;;8.70;1.00;;;;;;5090960;28;20193;-79
2020/12/04 11:43:41;;;;;;;4.30;2.30;;;8.80;1.00;;;;;;5075415;28;20179;-74
2020/12/04 11:46:09;;;;;;;5.90;2.60;;;8.70;1.00;;;;;;5074926;28;20884;-75
2020/12/04 11:48:51;;;;;;;6.40;3.10;;;8.70;1.00;;;;;;5074840;28;20537;-79
2020/12/04 11:51:45;;;;;;;5.30;2.40;;;8.70;1.00;;;;;;5076099;28;20546;-78
2020/12/04 11:54:15;;;;;;;2.63;2.40;;;8.70;1.00;;;;;;5081862;28;20401;-79
2020/12/04 11:56:47;;;;;;;2.20;2.00;;;8.70;1.00;;;;;;5089531;28;20409;-77
2020/12/04 11:59:15;;;;;;;5.80;2.30;;;8.70;1.00;;;;;;5074457;28;20440;-78
2020/12/04 12:02:09;;;;;;;6.37;2.30;;;8.80;1.00;;;;;;5078861;28;20914;-77
2020/12/04 12:04:35;;;;;;;5.70;1.87;;;8.80;1.00;;;;;;5083029;28;20466;-77
2020/12/04 12:07:15;;;;;;;13.17;2.00;;;8.90;1.00;;;;;;5094613;28;20384;-78
2020/12/04 12:09:57;;;;;;;1.83;1.70;;;8.90;1.00;;;;;;5093423;28;20782;-78
2020/12/04 12:12:23;;;;;;;3.57;2.07;;;8.80;1.00;;;;;;5077475;28;20893;-75
2020/12/04 12:14:57;;;;;;;9.70;2.07;;;8.80;1.00;;;;;;5074392;28;20451;-74
2020/12/04 12:17:39;;;;;;;7.63;2.30;;;9.10;1.00;;;;;;5082916;28;20261;-74
2020/12/04 12:20:09;;;;;;;6.87;2.23;;;8.90;1.00;;;;;;5094735;28;20458;-76
2020/12/04 12:22:35;;;;;;;3.93;1.93;;;8.80;1.00;;;;;;5094699;28;20439;-76
2020/12/04 12:25:33;;;;;;;3.73;2.33;;;9.00;1.00;;;;;;5082762;28;20421;-76
2020/12/04 12:27:58;;;;;;;5.23;2.30;;;9.00;1.00;;;;;;5076892;28;20250;-76
2020/12/04 12:31:02;;;;;;;4.00;2.63;;;9.10;1.00;;;;;;5074433;28;20493;-77
2020/12/04 12:33:33;;;;;;;4.10;1.93;;;9.00;1.00;;;;;;5073816;28;20158;-77
2020/12/04 12:36:21;;;;;;;8.63;2.40;;;9.00;1.00;;;;;;5073944;28;20459;-77
2020/12/04 12:38:57;;;;;;;3.03;2.73;;;9.00;1.00;;;;;;5081017;28;20527;-76
2020/12/04 12:41:27;;;;;;;11.30;2.80;;;8.90;1.00;;;;;;5094032;28;20415;-77
2020/12/04 12:44:09;;;;;;;4.50;2.47;;;9.00;1.00;;;;;;5094083;28;20420;-76
2020/12/04 12:46:57;;;;;;;5.07;3.10;;;8.90;1.00;;;;;;5093830;28;20409;-76
2020/12/04 12:49:45;;;;;;;6.67;2.90;;;8.80;1.00;;;;;;5094183;28;20483;-75
2020/12/04 12:52:21;;;;;;;9.13;2.83;;;8.80;1.00;;;;;;5093952;28;20703;-75
2020/12/04 12:54:47;;;;;;;7.37;4.13;;;8.70;1.00;;;;;;5093561;28;20397;-74
2020/12/04 12:57:15;;;;;;;5.20;3.43;;;8.60;1.00;;;;;;5093567;28;20465;-75
2020/12/04 12:59:41;;;;;;;7.40;4.23;;;9.10;1.00;;;;;;5093624;28;20536;-74
2020/12/04 13:02:15;;;;;;;12.00;4.80;;;8.40;1.00;;;;;;5093803;28;20521;-75
2020/12/04 13:04:57;;;;;;;10.23;5.20;;;8.80;1.00;;;;;;5094225;28;20162;-74
2020/12/04 13:07:23;;;;;;;10.10;5.30;;;8.30;1.00;;;;;;5091875;28;20412;-75
2020/12/04 13:09:48;;;;;;;11.57;5.40;;;8.50;1.00;;;;;;5093759;28;20403;-75
2020/12/04 13:12:14;;;;;;;12.93;5.20;;;8.20;1.00;;;;;;5093793;28;20179;-75
2020/12/04 13:14:45;;;;;;;10.27;5.70;;;9.10;1.00;;;;;;5092606;28;20182;-75
2020/12/04 13:17:11;;;;;;;9.60;5.33;;;8.00;1.00;;;;;;5084193;28;20182;-75
2020/12/04 13:19:36;;;;;;;16.07;6.10;;;8.00;1.00;;;;;;5073830;28;20445;-77
2020/12/04 13:25:51;;;;;;;11.53;6.30;;;8.10;1.00;;;;;;5093725;28;20692;-77
2020/12/04 13:28:16;;;;;;;10.43;6.07;;;8.10;1.00;;;;;;5093714;28;20416;-76
2020/12/04 13:30:45;;;;;;;19.97;6.93;;;8.10;1.00;;;;;;5092137;28;20399;-76
2020/12/04 13:33:39;;;;;;;15.03;6.40;;;8.20;1.00;;;;;;5087981;28;20210;-76
2020/12/04 13:39:26;;;;;;;23.30;8.00;;;7.90;1.00;;;;;;5087107;28;20501;-76
2020/12/04 13:42:27;;;;;;;17.83;7.50;;;8.00;1.00;;;;;;5097569;28;20487;-76
2020/12/04 13:44:53;;;;;;;19.20;7.67;;;7.80;1.00;;;;;;5095469;28;20158;-76
2020/12/04 13:47:53;;;;;;;16.13;7.70;;;7.70;1.00;;;;;;5087768;28;20408;-76